AZU9006 SBFI-SBCF
Flight info
| Callsign | AZU9006 |
|---|---|
| Flight time | 1h 37m |
| Altitude | 35000 |
| Route | UPORU UZ65 ANSOK DCT VULAD |
| Aircraft | E195/M-SDE3GILORVW/S |
Departure
| Time | 2026-04-25 20:16 |
|---|---|
| Airport | Cataratas International Airport (SBFI) |
Arrival
| Time | 2026-04-25 21:54 |
|---|---|
| Airport | Tancredo Neves International Airport (SBCF) |
| Time | Latitude | Longitude | Altitude | Speed | Heading |
|---|---|---|---|---|---|
| 2026-04-25 19:54 | -25.59630 | -54.49048 | 767 ft | 0 kts | 220° |
| 2026-04-25 19:55 | -25.59630 | -54.49049 | 766 ft | 0 kts | 220° |
| 2026-04-25 20:08 | -25.59622 | -54.49042 | 766 ft | 2 kts | 220° |
| 2026-04-25 20:08 | -25.59611 | -54.49031 | 766 ft | 2 kts | 220° |
| 2026-04-25 20:09 | -25.59599 | -54.49020 | 766 ft | 1 kts | 220° |
| 2026-04-25 20:09 | -25.59592 | -54.49014 | 766 ft | 2 kts | 208° |
| 2026-04-25 20:09 | -25.59578 | -54.49009 | 765 ft | 2 kts | 184° |
| 2026-04-25 20:09 | -25.59563 | -54.49011 | 765 ft | 2 kts | 160° |
| 2026-04-25 20:10 | -25.59550 | -54.49019 | 764 ft | 2 kts | 136° |
| 2026-04-25 20:10 | -25.59546 | -54.49025 | 764 ft | 0 kts | 129° |
| 2026-04-25 20:12 | -25.59549 | -54.49020 | 764 ft | 1 kts | 129° |
| 2026-04-25 20:12 | -25.59561 | -54.49003 | 765 ft | 3 kts | 122° |
| 2026-04-25 20:12 | -25.59565 | -54.48974 | 766 ft | 4 kts | 76° |
| 2026-04-25 20:12 | -25.59560 | -54.48961 | 766 ft | 5 kts | 59° |
| 2026-04-25 20:13 | -25.59511 | -54.48909 | 766 ft | 5 kts | 41° |
| 2026-04-25 20:13 | -25.59471 | -54.48894 | 766 ft | 10 kts | 341° |
| 2026-04-25 20:13 | -25.59394 | -54.48976 | 762 ft | 18 kts | 310° |
| 2026-04-25 20:13 | -25.59302 | -54.49097 | 755 ft | 22 kts | 311° |
| 2026-04-25 20:14 | -25.59184 | -54.49247 | 743 ft | 28 kts | 309° |
| 2026-04-25 20:14 | -25.59042 | -54.49430 | 730 ft | 33 kts | 310° |
| 2026-04-25 20:14 | -25.58878 | -54.49639 | 715 ft | 36 kts | 310° |
| 2026-04-25 20:14 | -25.58719 | -54.49842 | 708 ft | 27 kts | 314° |
| 2026-04-25 20:15 | -25.58609 | -54.49921 | 709 ft | 13 kts | 301° |
| 2026-04-25 20:15 | -25.58626 | -54.49955 | 710 ft | 5 kts | 165° |
| 2026-04-25 20:15 | -25.58665 | -54.49914 | 709 ft | 10 kts | 131° |
| 2026-04-25 20:15 | -25.58808 | -54.49731 | 711 ft | 61 kts | 130° |
| 2026-04-25 20:16 | -25.59211 | -54.49215 | 746 ft | 113 kts | 130° |
| 2026-04-25 20:16 | -25.59826 | -54.48422 | 792 ft | 154 kts | 130° |
| 2026-04-25 20:16 | -25.60543 | -54.47496 | 1115 ft | 163 kts | 130° |
| 2026-04-25 20:16 | -25.61271 | -54.46481 | 1540 ft | 172 kts | 128° |
| 2026-04-25 20:17 | -25.62016 | -54.45465 | 2164 ft | 173 kts | 129° |
| 2026-04-25 20:17 | -25.62855 | -54.44378 | 2437 ft | 200 kts | 131° |
| 2026-04-25 20:17 | -25.63851 | -54.43138 | 2767 ft | 227 kts | 132° |
| 2026-04-25 20:17 | -25.64766 | -54.41695 | 3462 ft | 235 kts | 106° |
| 2026-04-25 20:18 | -25.64734 | -54.39917 | 4197 ft | 243 kts | 69° |
| 2026-04-25 20:18 | -25.63707 | -54.38323 | 4608 ft | 266 kts | 46° |
| 2026-04-25 20:18 | -25.62398 | -54.36811 | 5179 ft | 280 kts | 47° |
| 2026-04-25 20:18 | -25.61054 | -54.35216 | 5924 ft | 286 kts | 47° |
| 2026-04-25 20:19 | -25.59722 | -54.33612 | 6738 ft | 288 kts | 47° |
| 2026-04-25 20:19 | -25.58367 | -54.31966 | 7556 ft | 290 kts | 47° |
| 2026-04-25 20:19 | -25.57011 | -54.30314 | 8327 ft | 293 kts | 46° |
| 2026-04-25 20:19 | -25.55643 | -54.28646 | 9122 ft | 295 kts | 46° |
| 2026-04-25 20:20 | -25.54275 | -54.26976 | 9984 ft | 297 kts | 47° |
| 2026-04-25 20:20 | -25.52875 | -54.25267 | 10849 ft | 299 kts | 47° |
| 2026-04-25 20:20 | -25.51472 | -54.23560 | 11593 ft | 306 kts | 47° |
| 2026-04-25 20:20 | -25.50023 | -54.21791 | 12106 ft | 317 kts | 47° |
| 2026-04-25 20:21 | -25.48527 | -54.19962 | 12463 ft | 328 kts | 46° |
| 2026-04-25 20:21 | -25.46980 | -54.18076 | 12857 ft | 337 kts | 45° |
| 2026-04-25 20:21 | -25.45386 | -54.16131 | 13292 ft | 343 kts | 44° |
| 2026-04-25 20:21 | -25.43777 | -54.14172 | 13821 ft | 348 kts | 44° |
| 2026-04-25 20:22 | -25.42147 | -54.12190 | 14410 ft | 352 kts | 44° |
| 2026-04-25 20:22 | -25.41591 | -54.11512 | 14607 ft | 353 kts | 44° |
| 2026-04-25 20:22 | -25.38831 | -54.08154 | 15587 ft | 358 kts | 44° |
| 2026-04-25 20:22 | -25.37152 | -54.06113 | 16141 ft | 362 kts | 44° |
| 2026-04-25 20:23 | -25.35453 | -54.04047 | 16675 ft | 367 kts | 44° |
| 2026-04-25 20:23 | -25.33725 | -54.01949 | 17215 ft | 371 kts | 44° |
| 2026-04-25 20:23 | -25.31957 | -53.99800 | 17722 ft | 376 kts | 44° |
| 2026-04-25 20:23 | -25.30198 | -53.97665 | 18201 ft | 380 kts | 44° |
| 2026-04-25 20:24 | -25.28399 | -53.95483 | 18687 ft | 385 kts | 43° |
| 2026-04-25 20:24 | -25.26596 | -53.93296 | 19148 ft | 390 kts | 44° |
| 2026-04-25 20:24 | -25.24953 | -53.90895 | 19597 ft | 398 kts | 51° |
| 2026-04-25 20:24 | -25.23347 | -53.88389 | 20043 ft | 402 kts | 50° |
| 2026-04-25 20:25 | -25.21715 | -53.85903 | 20455 ft | 406 kts | 50° |
| 2026-04-25 20:25 | -25.20027 | -53.83357 | 20904 ft | 410 kts | 50° |
| 2026-04-25 20:25 | -25.18343 | -53.80822 | 21348 ft | 413 kts | 49° |
| 2026-04-25 20:25 | -25.16641 | -53.78264 | 21751 ft | 417 kts | 49° |
| 2026-04-25 20:26 | -25.14927 | -53.75690 | 22131 ft | 421 kts | 49° |
| 2026-04-25 20:26 | -25.13166 | -53.73048 | 22550 ft | 425 kts | 49° |
| 2026-04-25 20:26 | -25.11417 | -53.70423 | 23005 ft | 427 kts | 49° |
| 2026-04-25 20:26 | -25.09658 | -53.67786 | 23454 ft | 430 kts | 49° |
| 2026-04-25 20:27 | -25.07884 | -53.65128 | 23871 ft | 433 kts | 49° |
| 2026-04-25 20:27 | -25.06101 | -53.62459 | 24329 ft | 435 kts | 49° |
| 2026-04-25 20:27 | -25.04296 | -53.59757 | 24752 ft | 438 kts | 49° |
| 2026-04-25 20:27 | -25.02481 | -53.57043 | 25146 ft | 441 kts | 49° |
| 2026-04-25 20:28 | -25.00674 | -53.54342 | 25550 ft | 444 kts | 49° |
| 2026-04-25 20:28 | -24.98841 | -53.51603 | 25925 ft | 447 kts | 49° |
| 2026-04-25 20:28 | -24.96965 | -53.48801 | 26313 ft | 450 kts | 49° |
| 2026-04-25 20:28 | -24.95106 | -53.46027 | 26703 ft | 452 kts | 49° |
| 2026-04-25 20:29 | -24.93251 | -53.43260 | 27106 ft | 454 kts | 49° |
| 2026-04-25 20:29 | -24.91372 | -53.40459 | 27519 ft | 456 kts | 49° |
| 2026-04-25 20:29 | -24.89462 | -53.37614 | 27856 ft | 459 kts | 49° |
| 2026-04-25 20:29 | -24.87586 | -53.34821 | 28232 ft | 461 kts | 48° |
| 2026-04-25 20:30 | -24.85652 | -53.31944 | 28549 ft | 464 kts | 48° |
| 2026-04-25 20:30 | -24.83741 | -53.29102 | 28893 ft | 466 kts | 48° |
| 2026-04-25 20:30 | -24.81812 | -53.26235 | 29257 ft | 468 kts | 48° |
| 2026-04-25 20:30 | -24.79875 | -53.23357 | 29603 ft | 470 kts | 48° |
| 2026-04-25 20:31 | -24.77931 | -53.20473 | 29950 ft | 471 kts | 48° |
| 2026-04-25 20:31 | -24.75981 | -53.17578 | 30272 ft | 474 kts | 48° |
| 2026-04-25 20:31 | -24.74011 | -53.14658 | 30569 ft | 476 kts | 48° |
| 2026-04-25 20:31 | -24.72023 | -53.11712 | 30888 ft | 476 kts | 48° |
| 2026-04-25 20:32 | -24.68085 | -53.05883 | 30963 ft | 486 kts | 49° |
| 2026-04-25 20:32 | -24.64042 | -52.99783 | 30954 ft | 503 kts | 49° |
| 2026-04-25 20:33 | -24.59883 | -52.93525 | 30959 ft | 514 kts | 49° |
| 2026-04-25 20:33 | -24.56343 | -52.88195 | 30960 ft | 517 kts | 49° |
| 2026-04-25 20:34 | -24.51407 | -52.80785 | 30963 ft | 515 kts | 49° |
| 2026-04-25 20:34 | -24.47195 | -52.74458 | 30970 ft | 515 kts | 50° |
| 2026-04-25 20:35 | -24.42949 | -52.68120 | 30980 ft | 514 kts | 49° |
| 2026-04-25 20:35 | -24.38705 | -52.61834 | 30981 ft | 514 kts | 49° |
| 2026-04-25 20:36 | -24.34471 | -52.55559 | 30991 ft | 513 kts | 49° |
| 2026-04-25 20:36 | -24.30245 | -52.49309 | 30992 ft | 513 kts | 49° |
| 2026-04-25 20:37 | -24.25981 | -52.43007 | 30983 ft | 513 kts | 49° |
| 2026-04-25 20:37 | -24.21739 | -52.36745 | 30986 ft | 513 kts | 49° |
| 2026-04-25 20:38 | -24.17502 | -52.30460 | 30964 ft | 512 kts | 49° |
| 2026-04-25 20:38 | -24.13287 | -52.24231 | 30958 ft | 512 kts | 49° |
| 2026-04-25 20:39 | -24.09058 | -52.17993 | 30963 ft | 512 kts | 49° |
| 2026-04-25 20:39 | -24.05531 | -52.12797 | 30939 ft | 511 kts | 49° |
| 2026-04-25 20:40 | -24.00479 | -52.05632 | 30915 ft | 511 kts | 47° |
| 2026-04-25 20:40 | -23.96134 | -51.99497 | 30913 ft | 511 kts | 48° |
| 2026-04-25 20:41 | -23.91799 | -51.93402 | 30925 ft | 510 kts | 48° |
| 2026-04-25 20:41 | -23.87462 | -51.87290 | 30936 ft | 509 kts | 48° |
| 2026-04-25 20:42 | -23.83116 | -51.81195 | 30959 ft | 513 kts | 48° |
| 2026-04-25 20:42 | -23.78700 | -51.74989 | 30975 ft | 517 kts | 48° |
| 2026-04-25 20:43 | -23.74307 | -51.68831 | 30978 ft | 516 kts | 48° |
| 2026-04-25 20:43 | -23.69967 | -51.62667 | 30984 ft | 514 kts | 49° |
| 2026-04-25 20:44 | -23.65587 | -51.56458 | 30988 ft | 513 kts | 49° |
| 2026-04-25 20:44 | -23.61238 | -51.50301 | 30993 ft | 514 kts | 49° |
| 2026-04-25 20:45 | -23.56870 | -51.44122 | 30995 ft | 514 kts | 49° |
| 2026-04-25 20:45 | -23.52531 | -51.37994 | 30998 ft | 513 kts | 49° |
| 2026-04-25 20:46 | -23.48221 | -51.31783 | 30988 ft | 514 kts | 49° |
| 2026-04-25 20:46 | -23.43909 | -51.25574 | 30990 ft | 514 kts | 49° |
| 2026-04-25 20:47 | -23.39616 | -51.19400 | 30994 ft | 514 kts | 49° |
| 2026-04-25 20:47 | -23.35289 | -51.13184 | 30987 ft | 513 kts | 49° |
| 2026-04-25 20:48 | -23.31660 | -51.06464 | 30988 ft | 519 kts | 60° |
| 2026-04-25 20:48 | -23.28354 | -50.99501 | 30975 ft | 519 kts | 59° |
| 2026-04-25 20:49 | -23.25053 | -50.92575 | 30970 ft | 519 kts | 59° |
| 2026-04-25 20:49 | -23.21743 | -50.85640 | 30968 ft | 518 kts | 59° |
| 2026-04-25 20:50 | -23.18418 | -50.78683 | 30966 ft | 519 kts | 59° |
| 2026-04-25 20:50 | -23.15092 | -50.71734 | 30962 ft | 519 kts | 59° |
| 2026-04-25 20:51 | -23.11779 | -50.64823 | 30963 ft | 520 kts | 59° |
| 2026-04-25 20:51 | -23.08448 | -50.57883 | 30961 ft | 518 kts | 60° |
| 2026-04-25 20:52 | -23.05651 | -50.52063 | 30963 ft | 519 kts | 60° |
| 2026-04-25 20:52 | -23.01772 | -50.44001 | 30964 ft | 519 kts | 60° |
| 2026-04-25 20:53 | -22.98457 | -50.37112 | 30965 ft | 519 kts | 60° |
| 2026-04-25 20:53 | -22.95254 | -50.30468 | 30957 ft | 518 kts | 59° |
| 2026-04-25 20:54 | -22.91935 | -50.23592 | 30960 ft | 517 kts | 59° |
| 2026-04-25 20:54 | -22.88598 | -50.16689 | 30965 ft | 517 kts | 59° |
| 2026-04-25 20:55 | -22.85256 | -50.09784 | 30967 ft | 518 kts | 59° |
| 2026-04-25 20:55 | -22.81922 | -50.02905 | 30976 ft | 519 kts | 59° |
| 2026-04-25 20:56 | -22.78560 | -49.95978 | 30988 ft | 519 kts | 59° |
| 2026-04-25 20:56 | -22.75217 | -49.89099 | 30996 ft | 516 kts | 59° |
| 2026-04-25 20:57 | -22.71882 | -49.82250 | 31004 ft | 516 kts | 59° |
| 2026-04-25 20:57 | -22.68515 | -49.75363 | 31011 ft | 515 kts | 59° |
| 2026-04-25 20:58 | -22.65167 | -49.68525 | 31007 ft | 515 kts | 59° |
| 2026-04-25 20:58 | -22.61825 | -49.61709 | 31017 ft | 516 kts | 59° |
| 2026-04-25 20:59 | -22.58463 | -49.54859 | 31019 ft | 515 kts | 59° |
| 2026-04-25 20:59 | -22.55119 | -49.48058 | 31022 ft | 514 kts | 59° |
| 2026-04-25 21:00 | -22.52885 | -49.43518 | 31026 ft | 515 kts | 59° |
| 2026-04-25 21:01 | -22.46726 | -49.31014 | 31018 ft | 513 kts | 59° |
| 2026-04-25 21:01 | -22.43343 | -49.24159 | 31017 ft | 514 kts | 59° |
| 2026-04-25 21:02 | -22.39845 | -49.17422 | 31026 ft | 511 kts | 52° |
| 2026-04-25 21:02 | -22.35121 | -49.11792 | 31038 ft | 505 kts | 39° |
| 2026-04-25 21:03 | -22.29981 | -49.06605 | 31442 ft | 505 kts | 40° |
| 2026-04-25 21:03 | -22.27447 | -49.04038 | 31902 ft | 502 kts | 40° |
| 2026-04-25 21:03 | -22.24896 | -49.01456 | 32384 ft | 498 kts | 40° |
| 2026-04-25 21:03 | -22.22358 | -48.98888 | 32859 ft | 495 kts | 40° |
| 2026-04-25 21:04 | -22.19840 | -48.96342 | 33315 ft | 493 kts | 40° |
| 2026-04-25 21:04 | -22.17322 | -48.93796 | 33714 ft | 492 kts | 40° |
| 2026-04-25 21:04 | -22.14856 | -48.91305 | 34081 ft | 492 kts | 40° |
| 2026-04-25 21:04 | -22.12363 | -48.88787 | 34464 ft | 491 kts | 40° |
| 2026-04-25 21:05 | -22.09853 | -48.86254 | 34860 ft | 490 kts | 40° |
| 2026-04-25 21:05 | -22.07381 | -48.83760 | 34992 ft | 492 kts | 40° |
| 2026-04-25 21:05 | -22.04883 | -48.81242 | 35010 ft | 493 kts | 40° |
| 2026-04-25 21:06 | -21.99872 | -48.76192 | 35012 ft | 493 kts | 40° |
| 2026-04-25 21:06 | -21.94840 | -48.71128 | 35012 ft | 493 kts | 40° |
| 2026-04-25 21:07 | -21.89842 | -48.66102 | 35012 ft | 492 kts | 40° |
| 2026-04-25 21:07 | -21.84827 | -48.61065 | 35006 ft | 491 kts | 40° |
| 2026-04-25 21:08 | -21.79829 | -48.56050 | 35011 ft | 491 kts | 40° |
| 2026-04-25 21:08 | -21.74853 | -48.51062 | 35024 ft | 491 kts | 40° |
| 2026-04-25 21:09 | -21.67390 | -48.43588 | 35028 ft | 485 kts | 40° |
| 2026-04-25 21:09 | -21.62463 | -48.38662 | 35028 ft | 486 kts | 40° |
| 2026-04-25 21:10 | -21.57523 | -48.33727 | 35022 ft | 485 kts | 40° |
| 2026-04-25 21:10 | -21.52546 | -48.28760 | 35027 ft | 486 kts | 40° |
| 2026-04-25 21:11 | -21.47590 | -48.23818 | 35025 ft | 486 kts | 40° |
| 2026-04-25 21:11 | -21.42669 | -48.18916 | 35023 ft | 485 kts | 40° |
| 2026-04-25 21:12 | -21.37693 | -48.13965 | 35025 ft | 486 kts | 40° |
| 2026-04-25 21:12 | -21.33592 | -48.09887 | 35019 ft | 485 kts | 40° |
| 2026-04-25 21:13 | -21.27798 | -48.04133 | 35018 ft | 486 kts | 40° |
| 2026-04-25 21:13 | -21.22827 | -47.99200 | 35019 ft | 486 kts | 40° |
| 2026-04-25 21:14 | -21.17877 | -47.94292 | 35026 ft | 486 kts | 40° |
| 2026-04-25 21:14 | -21.12918 | -47.89381 | 35030 ft | 485 kts | 40° |
| 2026-04-25 21:15 | -21.07957 | -47.84473 | 35034 ft | 484 kts | 40° |
| 2026-04-25 21:15 | -21.03023 | -47.79596 | 35036 ft | 483 kts | 40° |
| 2026-04-25 21:16 | -20.98102 | -47.74736 | 35034 ft | 484 kts | 40° |
| 2026-04-25 21:16 | -20.93161 | -47.69861 | 35045 ft | 484 kts | 41° |
| 2026-04-25 21:17 | -20.88182 | -47.64954 | 35052 ft | 484 kts | 41° |
| 2026-04-25 21:17 | -20.83243 | -47.60090 | 35060 ft | 484 kts | 41° |
| 2026-04-25 21:18 | -20.78317 | -47.55243 | 35073 ft | 483 kts | 41° |
| 2026-04-25 21:18 | -20.73354 | -47.50365 | 35084 ft | 483 kts | 41° |
| 2026-04-25 21:19 | -20.68449 | -47.45549 | 35096 ft | 482 kts | 41° |
| 2026-04-25 21:19 | -20.63514 | -47.40707 | 35105 ft | 481 kts | 41° |
| 2026-04-25 21:20 | -20.59391 | -47.36665 | 35113 ft | 482 kts | 41° |
| 2026-04-25 21:20 | -20.53647 | -47.31039 | 35112 ft | 481 kts | 40° |
| 2026-04-25 21:21 | -20.48725 | -47.26224 | 35116 ft | 481 kts | 40° |
| 2026-04-25 21:21 | -20.43789 | -47.21399 | 35115 ft | 481 kts | 40° |
| 2026-04-25 21:22 | -20.38873 | -47.16598 | 35112 ft | 481 kts | 41° |
| 2026-04-25 21:22 | -20.33956 | -47.11800 | 35105 ft | 479 kts | 41° |
| 2026-04-25 21:23 | -20.29028 | -47.06996 | 35101 ft | 479 kts | 41° |
| 2026-04-25 21:23 | -20.24107 | -47.02203 | 35100 ft | 479 kts | 41° |
| 2026-04-25 21:24 | -20.19180 | -46.97409 | 35117 ft | 479 kts | 41° |
| 2026-04-25 21:24 | -20.14270 | -46.92635 | 35133 ft | 479 kts | 41° |
| 2026-04-25 21:25 | -20.10007 | -46.87244 | 35152 ft | 481 kts | 58° |
| 2026-04-25 21:25 | -20.07497 | -46.80671 | 35163 ft | 484 kts | 77° |
| 2026-04-25 21:26 | -20.06752 | -46.73577 | 35168 ft | 482 kts | 81° |
| 2026-04-25 21:26 | -20.05185 | -46.66680 | 35165 ft | 482 kts | 75° |
| 2026-04-25 21:27 | -20.03517 | -46.59769 | 35155 ft | 483 kts | 75° |
| 2026-04-25 21:27 | -20.01870 | -46.52857 | 35156 ft | 483 kts | 76° |
| 2026-04-25 21:28 | -20.00230 | -46.45983 | 35153 ft | 483 kts | 76° |
| 2026-04-25 21:28 | -19.98577 | -46.39068 | 35145 ft | 483 kts | 76° |
| 2026-04-25 21:29 | -19.96931 | -46.32193 | 35131 ft | 483 kts | 75° |
| 2026-04-25 21:29 | -19.95273 | -46.25282 | 35122 ft | 482 kts | 75° |
| 2026-04-25 21:30 | -19.93621 | -46.18408 | 35109 ft | 482 kts | 75° |
| 2026-04-25 21:30 | -19.92240 | -46.12672 | 35091 ft | 482 kts | 75° |
| 2026-04-25 21:31 | -19.90313 | -46.04678 | 35085 ft | 469 kts | 75° |
| 2026-04-25 21:31 | -19.88710 | -45.98045 | 35091 ft | 464 kts | 75° |
| 2026-04-25 21:32 | -19.87106 | -45.91417 | 34521 ft | 468 kts | 75° |
| 2026-04-25 21:32 | -19.86294 | -45.88068 | 34027 ft | 467 kts | 75° |
| 2026-04-25 21:32 | -19.85488 | -45.84744 | 33517 ft | 467 kts | 75° |
| 2026-04-25 21:33 | -19.84681 | -45.81419 | 33001 ft | 469 kts | 75° |
| 2026-04-25 21:33 | -19.83865 | -45.78061 | 32508 ft | 471 kts | 75° |
| 2026-04-25 21:33 | -19.83048 | -45.74703 | 31986 ft | 473 kts | 75° |
| 2026-04-25 21:33 | -19.82228 | -45.71334 | 31468 ft | 474 kts | 75° |
| 2026-04-25 21:34 | -19.81400 | -45.67935 | 30939 ft | 473 kts | 75° |
| 2026-04-25 21:34 | -19.80588 | -45.64603 | 30416 ft | 469 kts | 75° |
| 2026-04-25 21:34 | -19.79769 | -45.61248 | 29901 ft | 465 kts | 75° |
| 2026-04-25 21:34 | -19.78966 | -45.57962 | 29391 ft | 462 kts | 75° |
| 2026-04-25 21:35 | -19.78170 | -45.54707 | 28884 ft | 459 kts | 75° |
| 2026-04-25 21:35 | -19.77372 | -45.51444 | 28371 ft | 456 kts | 76° |
| 2026-04-25 21:35 | -19.76581 | -45.48214 | 27870 ft | 453 kts | 76° |
| 2026-04-25 21:35 | -19.75795 | -45.45006 | 27376 ft | 449 kts | 76° |
| 2026-04-25 21:36 | -19.75007 | -45.41793 | 26878 ft | 444 kts | 76° |
| 2026-04-25 21:36 | -19.74234 | -45.38645 | 26392 ft | 441 kts | 76° |
| 2026-04-25 21:36 | -19.73467 | -45.35524 | 25912 ft | 437 kts | 76° |
| 2026-04-25 21:36 | -19.72710 | -45.32445 | 25504 ft | 434 kts | 76° |
| 2026-04-25 21:37 | -19.71944 | -45.29332 | 25059 ft | 431 kts | 76° |
| 2026-04-25 21:37 | -19.71446 | -45.27307 | 24785 ft | 429 kts | 76° |
| 2026-04-25 21:37 | -19.70448 | -45.23259 | 24147 ft | 424 kts | 76° |
| 2026-04-25 21:37 | -19.69705 | -45.20246 | 23575 ft | 418 kts | 76° |
| 2026-04-25 21:38 | -19.68978 | -45.17301 | 23107 ft | 408 kts | 76° |
| 2026-04-25 21:38 | -19.68265 | -45.14413 | 22655 ft | 403 kts | 76° |
| 2026-04-25 21:38 | -19.67555 | -45.11541 | 22209 ft | 402 kts | 76° |
| 2026-04-25 21:38 | -19.66856 | -45.08715 | 21768 ft | 401 kts | 76° |
| 2026-04-25 21:39 | -19.66146 | -45.05848 | 21324 ft | 399 kts | 76° |
| 2026-04-25 21:39 | -19.65446 | -45.03022 | 20888 ft | 397 kts | 76° |
| 2026-04-25 21:39 | -19.64744 | -45.00188 | 20450 ft | 394 kts | 76° |
| 2026-04-25 21:39 | -19.64054 | -44.97407 | 20022 ft | 391 kts | 76° |
| 2026-04-25 21:40 | -19.63364 | -44.94628 | 19594 ft | 388 kts | 76° |
| 2026-04-25 21:40 | -19.62684 | -44.91892 | 19173 ft | 386 kts | 76° |
| 2026-04-25 21:40 | -19.62000 | -44.89142 | 18749 ft | 383 kts | 76° |
| 2026-04-25 21:40 | -19.61324 | -44.86424 | 18331 ft | 381 kts | 76° |
| 2026-04-25 21:41 | -19.60651 | -44.83717 | 17914 ft | 378 kts | 76° |
| 2026-04-25 21:41 | -19.59986 | -44.81049 | 17503 ft | 375 kts | 76° |
| 2026-04-25 21:41 | -19.59325 | -44.78399 | 17095 ft | 373 kts | 76° |
| 2026-04-25 21:41 | -19.58665 | -44.75751 | 16624 ft | 372 kts | 76° |
| 2026-04-25 21:42 | -19.58011 | -44.73131 | 16193 ft | 368 kts | 76° |
| 2026-04-25 21:42 | -19.57354 | -44.70503 | 15781 ft | 365 kts | 75° |
| 2026-04-25 21:42 | -19.56715 | -44.67946 | 15383 ft | 363 kts | 75° |
| 2026-04-25 21:42 | -19.56067 | -44.65353 | 14979 ft | 361 kts | 76° |
| 2026-04-25 21:43 | -19.55425 | -44.62787 | 14579 ft | 359 kts | 76° |
| 2026-04-25 21:43 | -19.54793 | -44.60264 | 14185 ft | 356 kts | 76° |
| 2026-04-25 21:43 | -19.54163 | -44.57749 | 13793 ft | 353 kts | 76° |
| 2026-04-25 21:43 | -19.53536 | -44.55249 | 13403 ft | 351 kts | 76° |
| 2026-04-25 21:44 | -19.52911 | -44.52758 | 13015 ft | 349 kts | 76° |
| 2026-04-25 21:44 | -19.52286 | -44.50272 | 12627 ft | 347 kts | 76° |
| 2026-04-25 21:44 | -19.51051 | -44.45356 | 11867 ft | 343 kts | 76° |
| 2026-04-25 21:45 | -19.50445 | -44.42945 | 11491 ft | 337 kts | 76° |
| 2026-04-25 21:45 | -19.50050 | -44.41378 | 11247 ft | 332 kts | 76° |
| 2026-04-25 21:45 | -19.49266 | -44.38264 | 10764 ft | 321 kts | 76° |
| 2026-04-25 21:45 | -19.48703 | -44.36030 | 10418 ft | 313 kts | 76° |
| 2026-04-25 21:46 | -19.48140 | -44.33793 | 10072 ft | 306 kts | 76° |
| 2026-04-25 21:46 | -19.47599 | -44.31646 | 9740 ft | 299 kts | 75° |
| 2026-04-25 21:46 | -19.47067 | -44.29541 | 9414 ft | 293 kts | 75° |
| 2026-04-25 21:46 | -19.46549 | -44.27486 | 9097 ft | 287 kts | 75° |
| 2026-04-25 21:47 | -19.46039 | -44.25469 | 8785 ft | 281 kts | 75° |
| 2026-04-25 21:47 | -19.45539 | -44.23492 | 8477 ft | 276 kts | 75° |
| 2026-04-25 21:47 | -19.45050 | -44.21560 | 8175 ft | 271 kts | 75° |
| 2026-04-25 21:47 | -19.44566 | -44.19644 | 7877 ft | 266 kts | 75° |
| 2026-04-25 21:48 | -19.44093 | -44.17775 | 7584 ft | 262 kts | 75° |
| 2026-04-25 21:48 | -19.43890 | -44.15906 | 7294 ft | 256 kts | 102° |
| 2026-04-25 21:48 | -19.44702 | -44.14286 | 7065 ft | 246 kts | 135° |
| 2026-04-25 21:48 | -19.45906 | -44.13059 | 6855 ft | 236 kts | 135° |
| 2026-04-25 21:49 | -19.47079 | -44.11881 | 6592 ft | 230 kts | 138° |
| 2026-04-25 21:49 | -19.48251 | -44.10764 | 6313 ft | 225 kts | 139° |
| 2026-04-25 21:49 | -19.49411 | -44.09684 | 6053 ft | 219 kts | 139° |
| 2026-04-25 21:49 | -19.50558 | -44.08626 | 5759 ft | 214 kts | 139° |
| 2026-04-25 21:50 | -19.51663 | -44.07611 | 5473 ft | 208 kts | 139° |
| 2026-04-25 21:50 | -19.52709 | -44.06651 | 5245 ft | 188 kts | 139° |
| 2026-04-25 21:50 | -19.53661 | -44.05778 | 4969 ft | 173 kts | 139° |
| 2026-04-25 21:50 | -19.54245 | -44.05243 | 4797 ft | 164 kts | 139° |
| 2026-04-25 21:51 | -19.55338 | -44.04240 | 4507 ft | 144 kts | 139° |
| 2026-04-25 21:51 | -19.56078 | -44.03561 | 4326 ft | 141 kts | 139° |
| 2026-04-25 21:51 | -19.56824 | -44.02877 | 4163 ft | 143 kts | 140° |
| 2026-04-25 21:51 | -19.57592 | -44.02177 | 3983 ft | 144 kts | 140° |
| 2026-04-25 21:52 | -19.58340 | -44.01494 | 3810 ft | 143 kts | 138° |
| 2026-04-25 21:52 | -19.59091 | -44.00794 | 3600 ft | 143 kts | 139° |
| 2026-04-25 21:52 | -19.59848 | -44.00117 | 3434 ft | 141 kts | 141° |
| 2026-04-25 21:52 | -19.60608 | -43.99430 | 3205 ft | 142 kts | 140° |
| 2026-04-25 21:53 | -19.61344 | -43.98753 | 3013 ft | 141 kts | 140° |
| 2026-04-25 21:53 | -19.62083 | -43.98070 | 2851 ft | 140 kts | 140° |
| 2026-04-25 21:53 | -19.62823 | -43.97394 | 2758 ft | 133 kts | 140° |
| 2026-04-25 21:53 | -19.63409 | -43.96855 | 2757 ft | 89 kts | 140° |
| 2026-04-25 21:54 | -19.63596 | -43.96662 | 2757 ft | 11 kts | 77° |
| 2026-04-25 21:54 | -19.63595 | -43.96583 | 2757 ft | 6 kts | 112° |
| 2026-04-25 21:54 | -19.63598 | -43.96576 | 2757 ft | 0 kts | 110° |
| 2026-04-25 21:55 | -19.63598 | -43.96575 | 2757 ft | 1 kts | 110° |
| 2026-04-25 21:55 | -19.63607 | -43.96549 | 2757 ft | 6 kts | 109° |
| 2026-04-25 21:55 | -19.63621 | -43.96504 | 2757 ft | 6 kts | 108° |
| 2026-04-25 21:55 | -19.63634 | -43.96461 | 2757 ft | 5 kts | 108° |
| 2026-04-25 21:56 | -19.63643 | -43.96420 | 2757 ft | 6 kts | 88° |
| 2026-04-25 21:56 | -19.63633 | -43.96390 | 2757 ft | 6 kts | 55° |
| 2026-04-25 21:56 | -19.63587 | -43.96356 | 2757 ft | 5 kts | 28° |
| 2026-04-25 21:56 | -19.63555 | -43.96338 | 2757 ft | 4 kts | 28° |
| 2026-04-25 21:57 | -19.63526 | -43.96321 | 2757 ft | 4 kts | 28° |
| 2026-04-25 21:57 | -19.63499 | -43.96306 | 2757 ft | 5 kts | 28° |
| 2026-04-25 21:57 | -19.63464 | -43.96286 | 2756 ft | 6 kts | 28° |
| 2026-04-25 21:57 | -19.63422 | -43.96262 | 2754 ft | 6 kts | 28° |
| 2026-04-25 21:58 | -19.63411 | -43.96256 | 2754 ft | 0 kts | 28° |